sensor_id;sensor_type;location;lat;lon;timestamp;temperature;humidity
8402;DHT22;4238;48.404;9.498;2022-10-16T00:02:25;14.20;99.90
8402;DHT22;4238;48.404;9.498;2022-10-16T00:04:52;14.20;99.90
8402;DHT22;4238;48.404;9.498;2022-10-16T00:07:20;14.30;99.90
8402;DHT22;4238;48.404;9.498;2022-10-16T00:09:47;14.30;99.90
8402;DHT22;4238;48.404;9.498;2022-10-16T00:12:14;14.20;99.90
8402;DHT22;4238;48.404;9.498;2022-10-16T00:14:42;14.30;99.90
8402;DHT22;4238;48.404;9.498;2022-10-16T00:17:09;14.20;99.90
8402;DHT22;4238;48.404;9.498;2022-10-16T00:19:36;14.20;99.90
8402;DHT22;4238;48.404;9.498;2022-10-16T00:22:03;14.20;99.90
8402;DHT22;4238;48.404;9.498;2022-10-16T00:24:30;14.20;99.90
8402;DHT22;4238;48.404;9.498;2022-10-16T00:26:57;14.20;99.90
8402;DHT22;4238;48.404;9.498;2022-10-16T00:29:23;14.20;99.90
8402;DHT22;4238;48.404;9.498;2022-10-16T00:31:52;14.20;99.90
8402;DHT22;4238;48.404;9.498;2022-10-16T00:34:18;14.10;99.90
8402;DHT22;4238;48.404;9.498;2022-10-16T00:36:46;14.10;99.90
8402;DHT22;4238;48.404;9.498;2022-10-16T00:39:13;14.10;99.90
8402;DHT22;4238;48.404;9.498;2022-10-16T00:41:40;14.10;99.90
8402;DHT22;4238;48.404;9.498;2022-10-16T00:44:41;14.00;99.90
8402;DHT22;4238;48.404;9.498;2022-10-16T00:47:11;14.00;99.90
8402;DHT22;4238;48.404;9.498;2022-10-16T00:49:39;13.90;99.90
8402;DHT22;4238;48.404;9.498;2022-10-16T00:52:06;13.90;99.90
8402;DHT22;4238;48.404;9.498;2022-10-16T00:54:33;13.90;99.90
8402;DHT22;4238;48.404;9.498;2022-10-16T00:57:02;13.90;99.90
8402;DHT22;4238;48.404;9.498;2022-10-16T00:59:33;14.00;99.90
8402;DHT22;4238;48.404;9.498;2022-10-16T01:02:01;13.90;99.90
8402;DHT22;4238;48.404;9.498;2022-10-16T01:04:33;13.90;99.90
8402;DHT22;4238;48.404;9.498;2022-10-16T01:07:06;13.90;99.90
8402;DHT22;4238;48.404;9.498;2022-10-16T01:09:44;13.90;99.90
8402;DHT22;4238;48.404;9.498;2022-10-16T01:12:15;13.90;99.90
8402;DHT22;4238;48.404;9.498;2022-10-16T01:14:51;13.90;99.90
8402;DHT22;4238;48.404;9.498;2022-10-16T01:17:23;13.90;99.90
8402;DHT22;4238;48.404;9.498;2022-10-16T01:20:03;13.90;99.90
8402;DHT22;4238;48.404;9.498;2022-10-16T01:22:38;13.90;99.90
8402;DHT22;4238;48.404;9.498;2022-10-16T01:25:11;13.90;99.90
8402;DHT22;4238;48.404;9.498;2022-10-16T01:27:42;14.00;99.90
8402;DHT22;4238;48.404;9.498;2022-10-16T01:30:15;14.00;99.90
8402;DHT22;4238;48.404;9.498;2022-10-16T01:32:46;14.00;99.90
8402;DHT22;4238;48.404;9.498;2022-10-16T01:35:21;13.90;99.90
8402;DHT22;4238;48.404;9.498;2022-10-16T01:37:51;13.90;99.90
8402;DHT22;4238;48.404;9.498;2022-10-16T01:40:20;13.90;99.90
8402;DHT22;4238;48.404;9.498;2022-10-16T01:42:55;13.80;99.90
8402;DHT22;4238;48.404;9.498;2022-10-16T01:45:23;13.70;99.90
8402;DHT22;4238;48.404;9.498;2022-10-16T01:47:50;13.70;99.90
8402;DHT22;4238;48.404;9.498;2022-10-16T01:50:19;13.60;99.90
8402;DHT22;4238;48.404;9.498;2022-10-16T01:52:49;13.60;99.90
8402;DHT22;4238;48.404;9.498;2022-10-16T01:55:22;13.50;99.90
8402;DHT22;4238;48.404;9.498;2022-10-16T01:57:54;13.50;99.90
8402;DHT22;4238;48.404;9.498;2022-10-16T02:00:22;13.50;99.90
8402;DHT22;4238;48.404;9.498;2022-10-16T02:02:53;13.40;99.90
8402;DHT22;4238;48.404;9.498;2022-10-16T02:05:23;13.50;99.90
8402;DHT22;4238;48.404;9.498;2022-10-16T02:07:52;13.60;99.90
8402;DHT22;4238;48.404;9.498;2022-10-16T02:10:19;13.60;99.90
8402;DHT22;4238;48.404;9.498;2022-10-16T02:12:49;13.70;99.90
8402;DHT22;4238;48.404;9.498;2022-10-16T02:15:18;13.80;99.90
8402;DHT22;4238;48.404;9.498;2022-10-16T02:17:45;13.70;99.90
8402;DHT22;4238;48.404;9.498;2022-10-16T02:20:12;13.80;99.90
8402;DHT22;4238;48.404;9.498;2022-10-16T02:22:43;13.80;99.90
8402;DHT22;4238;48.404;9.498;2022-10-16T02:25:17;13.80;99.90
8402;DHT22;4238;48.404;9.498;2022-10-16T02:27:48;13.90;99.90
8402;DHT22;4238;48.404;9.498;2022-10-16T02:30:21;13.90;99.90
8402;DHT22;4238;48.404;9.498;2022-10-16T02:32:52;13.90;99.90
8402;DHT22;4238;48.404;9.498;2022-10-16T02:35:21;13.90;99.90
8402;DHT22;4238;48.404;9.498;2022-10-16T02:37:50;13.90;99.90
8402;DHT22;4238;48.404;9.498;2022-10-16T02:40:17;13.90;99.90
8402;DHT22;4238;48.404;9.498;2022-10-16T02:42:44;13.90;99.90
8402;DHT22;4238;48.404;9.498;2022-10-16T02:45:11;13.90;99.90
8402;DHT22;4238;48.404;9.498;2022-10-16T02:47:40;13.90;99.90
8402;DHT22;4238;48.404;9.498;2022-10-16T02:50:07;14.00;99.90
8402;DHT22;4238;48.404;9.498;2022-10-16T02:52:34;13.90;99.90
8402;DHT22;4238;48.404;9.498;2022-10-16T02:55:01;13.90;99.90
8402;DHT22;4238;48.404;9.498;2022-10-16T02:57:28;14.00;99.90
8402;DHT22;4238;48.404;9.498;2022-10-16T02:59:55;14.00;99.90
8402;DHT22;4238;48.404;9.498;2022-10-16T03:02:21;14.00;99.90
8402;DHT22;4238;48.404;9.498;2022-10-16T03:04:50;14.00;99.90
8402;DHT22;4238;48.404;9.498;2022-10-16T03:07:16;14.00;99.90
8402;DHT22;4238;48.404;9.498;2022-10-16T03:09:43;13.90;99.90
8402;DHT22;4238;48.404;9.498;2022-10-16T03:12:10;14.00;99.90
8402;DHT22;4238;48.404;9.498;2022-10-16T03:14:38;14.00;99.90
8402;DHT22;4238;48.404;9.498;2022-10-16T03:17:05;14.00;99.90
8402;DHT22;4238;48.404;9.498;2022-10-16T03:19:32;13.90;99.90
8402;DHT22;4238;48.404;9.498;2022-10-16T03:22:01;13.90;99.90
8402;DHT22;4238;48.404;9.498;2022-10-16T03:24:28;13.90;99.90
8402;DHT22;4238;48.404;9.498;2022-10-16T03:26:55;13.90;99.90
8402;DHT22;4238;48.404;9.498;2022-10-16T03:29:22;14.00;99.90
8402;DHT22;4238;48.404;9.498;2022-10-16T03:31:51;14.00;99.90
8402;DHT22;4238;48.404;9.498;2022-10-16T03:34:18;14.00;99.90
8402;DHT22;4238;48.404;9.498;2022-10-16T03:36:44;14.00;99.90
8402;DHT22;4238;48.404;9.498;2022-10-16T03:39:13;14.00;99.90
8402;DHT22;4238;48.404;9.498;2022-10-16T03:41:40;14.00;99.90
8402;DHT22;4238;48.404;9.498;2022-10-16T03:44:07;14.00;99.90
8402;DHT22;4238;48.404;9.498;2022-10-16T03:46:34;14.00;99.90
8402;DHT22;4238;48.404;9.498;2022-10-16T03:49:01;14.00;99.90
8402;DHT22;4238;48.404;9.498;2022-10-16T03:51:28;14.00;99.90
8402;DHT22;4238;48.404;9.498;2022-10-16T03:53:54;13.90;99.90
8402;DHT22;4238;48.404;9.498;2022-10-16T03:56:23;13.90;99.90
8402;DHT22;4238;48.404;9.498;2022-10-16T03:58:50;13.90;99.90
8402;DHT22;4238;48.404;9.498;2022-10-16T04:01:17;13.80;99.90
8402;DHT22;4238;48.404;9.498;2022-10-16T04:03:43;13.80;99.90
8402;DHT22;4238;48.404;9.498;2022-10-16T04:06:10;13.70;99.90
8402;DHT22;4238;48.404;9.498;2022-10-16T04:08:37;13.60;99.90
8402;DHT22;4238;48.404;9.498;2022-10-16T04:11:05;13.60;99.90
8402;DHT22;4238;48.404;9.498;2022-10-16T04:13:33;13.50;99.90
8402;DHT22;4238;48.404;9.498;2022-10-16T04:16:00;13.50;99.90
8402;DHT22;4238;48.404;9.498;2022-10-16T04:18:27;13.50;99.90
8402;DHT22;4238;48.404;9.498;2022-10-16T04:20:54;13.50;99.90
8402;DHT22;4238;48.404;9.498;2022-10-16T04:23:21;13.50;99.90
8402;DHT22;4238;48.404;9.498;2022-10-16T04:25:49;13.50;99.90
8402;DHT22;4238;48.404;9.498;2022-10-16T04:28:16;13.50;99.90
8402;DHT22;4238;48.404;9.498;2022-10-16T04:30:44;13.50;99.90
8402;DHT22;4238;48.404;9.498;2022-10-16T04:33:11;13.50;99.90
8402;DHT22;4238;48.404;9.498;2022-10-16T04:35:38;13.60;99.90
8402;DHT22;4238;48.404;9.498;2022-10-16T04:38:05;13.70;99.90
8402;DHT22;4238;48.404;9.498;2022-10-16T04:40:32;13.60;99.90
8402;DHT22;4238;48.404;9.498;2022-10-16T04:43:01;13.60;99.90
8402;DHT22;4238;48.404;9.498;2022-10-16T04:45:28;13.70;99.90
8402;DHT22;4238;48.404;9.498;2022-10-16T04:47:58;13.70;99.90
8402;DHT22;4238;48.404;9.498;2022-10-16T04:50:26;13.70;99.90
8402;DHT22;4238;48.404;9.498;2022-10-16T04:52:52;13.60;99.90
8402;DHT22;4238;48.404;9.498;2022-10-16T04:55:20;13.60;99.90
8402;DHT22;4238;48.404;9.498;2022-10-16T04:57:46;13.60;99.90
8402;DHT22;4238;48.404;9.498;2022-10-16T05:00:13;13.70;99.90
8402;DHT22;4238;48.404;9.498;2022-10-16T05:02:40;13.70;99.90
8402;DHT22;4238;48.404;9.498;2022-10-16T05:05:09;13.80;99.90
8402;DHT22;4238;48.404;9.498;2022-10-16T05:07:35;13.80;99.90
8402;DHT22;4238;48.404;9.498;2022-10-16T05:10:03;13.90;99.90
8402;DHT22;4238;48.404;9.498;2022-10-16T05:12:30;13.80;99.90
8402;DHT22;4238;48.404;9.498;2022-10-16T05:14:57;13.80;99.90
8402;DHT22;4238;48.404;9.498;2022-10-16T05:17:24;13.80;99.90
8402;DHT22;4238;48.404;9.498;2022-10-16T05:19:51;13.70;99.90
8402;DHT22;4238;48.404;9.498;2022-10-16T05:22:19;13.70;99.90
8402;DHT22;4238;48.404;9.498;2022-10-16T05:24:46;13.70;99.90
8402;DHT22;4238;48.404;9.498;2022-10-16T05:27:13;13.60;99.90
8402;DHT22;4238;48.404;9.498;2022-10-16T05:29:44;13.60;99.90
8402;DHT22;4238;48.404;9.498;2022-10-16T05:32:12;13.60;99.90
8402;DHT22;4238;48.404;9.498;2022-10-16T05:34:39;13.50;99.90
8402;DHT22;4238;48.404;9.498;2022-10-16T05:37:06;13.50;99.90
8402;DHT22;4238;48.404;9.498;2022-10-16T05:39:34;13.40;99.90
8402;DHT22;4238;48.404;9.498;2022-10-16T05:42:02;13.30;99.90
8402;DHT22;4238;48.404;9.498;2022-10-16T05:44:29;13.20;99.90
8402;DHT22;4238;48.404;9.498;2022-10-16T05:46:56;13.20;99.90
8402;DHT22;4238;48.404;9.498;2022-10-16T05:49:23;13.10;99.90
8402;DHT22;4238;48.404;9.498;2022-10-16T05:51:50;13.10;99.90
8402;DHT22;4238;48.404;9.498;2022-10-16T05:54:17;13.00;99.90
8402;DHT22;4238;48.404;9.498;2022-10-16T05:56:45;13.00;99.90
8402;DHT22;4238;48.404;9.498;2022-10-16T05:59:12;13.00;99.90
8402;DHT22;4238;48.404;9.498;2022-10-16T06:01:39;13.00;99.90
8402;DHT22;4238;48.404;9.498;2022-10-16T06:04:06;13.00;99.90
8402;DHT22;4238;48.404;9.498;2022-10-16T06:06:33;13.00;99.90
8402;DHT22;4238;48.404;9.498;2022-10-16T06:09:02;13.00;99.90
8402;DHT22;4238;48.404;9.498;2022-10-16T06:11:31;13.00;99.90
8402;DHT22;4238;48.404;9.498;2022-10-16T06:14:01;13.10;99.90
8402;DHT22;4238;48.404;9.498;2022-10-16T06:16:32;13.00;99.90
8402;DHT22;4238;48.404;9.498;2022-10-16T06:18:59;13.00;99.90
8402;DHT22;4238;48.404;9.498;2022-10-16T06:21:29;13.10;99.90
8402;DHT22;4238;48.404;9.498;2022-10-16T06:23:56;13.20;99.90
8402;DHT22;4238;48.404;9.498;2022-10-16T06:26:25;13.20;99.90
8402;DHT22;4238;48.404;9.498;2022-10-16T06:28:54;13.20;99.90
8402;DHT22;4238;48.404;9.498;2022-10-16T06:31:23;13.30;99.90
8402;DHT22;4238;48.404;9.498;2022-10-16T06:33:53;13.40;99.90
8402;DHT22;4238;48.404;9.498;2022-10-16T06:36:22;13.50;99.90
8402;DHT22;4238;48.404;9.498;2022-10-16T06:38:49;13.50;99.90
8402;DHT22;4238;48.404;9.498;2022-10-16T06:41:18;13.50;99.90
8402;DHT22;4238;48.404;9.498;2022-10-16T06:43:46;13.50;99.90
8402;DHT22;4238;48.404;9.498;2022-10-16T06:46:15;13.50;99.90
8402;DHT22;4238;48.404;9.498;2022-10-16T06:48:43;13.60;99.90
8402;DHT22;4238;48.404;9.498;2022-10-16T06:51:12;13.60;99.90
8402;DHT22;4238;48.404;9.498;2022-10-16T06:53:40;13.60;99.90
8402;DHT22;4238;48.404;9.498;2022-10-16T06:56:08;13.70;99.90
8402;DHT22;4238;48.404;9.498;2022-10-16T06:58:35;13.70;99.90
8402;DHT22;4238;48.404;9.498;2022-10-16T07:01:03;13.90;99.90
8402;DHT22;4238;48.404;9.498;2022-10-16T07:03:30;13.90;99.90
8402;DHT22;4238;48.404;9.498;2022-10-16T07:06:01;14.00;99.90
8402;DHT22;4238;48.404;9.498;2022-10-16T07:08:30;14.00;99.90
8402;DHT22;4238;48.404;9.498;2022-10-16T07:11:00;14.10;99.90
8402;DHT22;4238;48.404;9.498;2022-10-16T07:13:27;14.10;99.90
8402;DHT22;4238;48.404;9.498;2022-10-16T07:15:54;14.20;99.90
8402;DHT22;4238;48.404;9.498;2022-10-16T07:18:21;14.10;99.90
8402;DHT22;4238;48.404;9.498;2022-10-16T07:20:52;14.20;99.90
8402;DHT22;4238;48.404;9.498;2022-10-16T07:23:20;14.20;99.90
8402;DHT22;4238;48.404;9.498;2022-10-16T07:25:53;14.20;99.90
8402;DHT22;4238;48.404;9.498;2022-10-16T07:28:21;14.30;99.90
8402;DHT22;4238;48.404;9.498;2022-10-16T07:30:48;14.30;99.90
8402;DHT22;4238;48.404;9.498;2022-10-16T07:33:15;14.30;99.90
8402;DHT22;4238;48.404;9.498;2022-10-16T07:35:48;14.40;99.90
8402;DHT22;4238;48.404;9.498;2022-10-16T07:38:15;14.50;99.90
8402;DHT22;4238;48.404;9.498;2022-10-16T07:40:43;14.50;99.90
8402;DHT22;4238;48.404;9.498;2022-10-16T07:43:11;14.50;99.90
8402;DHT22;4238;48.404;9.498;2022-10-16T07:45:45;14.60;99.90
8402;DHT22;4238;48.404;9.498;2022-10-16T07:48:13;14.50;99.90
8402;DHT22;4238;48.404;9.498;2022-10-16T07:50:39;14.50;99.90
8402;DHT22;4238;48.404;9.498;2022-10-16T07:53:06;14.60;99.90
8402;DHT22;4238;48.404;9.498;2022-10-16T07:55:33;14.70;99.90
8402;DHT22;4238;48.404;9.498;2022-10-16T07:58:02;14.80;99.90
8402;DHT22;4238;48.404;9.498;2022-10-16T08:00:29;14.90;99.90
8402;DHT22;4238;48.404;9.498;2022-10-16T08:02:56;15.00;99.90
8402;DHT22;4238;48.404;9.498;2022-10-16T08:05:25;15.00;99.90
8402;DHT22;4238;48.404;9.498;2022-10-16T08:07:53;15.10;99.90
8402;DHT22;4238;48.404;9.498;2022-10-16T08:10:21;15.20;99.90
8402;DHT22;4238;48.404;9.498;2022-10-16T08:12:48;15.20;99.90
8402;DHT22;4238;48.404;9.498;2022-10-16T08:15:17;15.30;99.90
8402;DHT22;4238;48.404;9.498;2022-10-16T08:17:54;15.40;99.90
8402;DHT22;4238;48.404;9.498;2022-10-16T08:20:22;15.40;99.90
8402;DHT22;4238;48.404;9.498;2022-10-16T08:22:48;15.50;99.90
8402;DHT22;4238;48.404;9.498;2022-10-16T08:25:15;15.50;99.90
8402;DHT22;4238;48.404;9.498;2022-10-16T08:27:42;15.60;99.90
8402;DHT22;4238;48.404;9.498;2022-10-16T08:30:11;15.60;99.90
8402;DHT22;4238;48.404;9.498;2022-10-16T08:32:39;15.70;99.90
8402;DHT22;4238;48.404;9.498;2022-10-16T08:35:08;15.70;99.90
8402;DHT22;4238;48.404;9.498;2022-10-16T08:37:35;15.80;99.90
8402;DHT22;4238;48.404;9.498;2022-10-16T08:40:04;15.80;99.90
8402;DHT22;4238;48.404;9.498;2022-10-16T08:42:44;15.80;99.90
8402;DHT22;4238;48.404;9.498;2022-10-16T08:45:38;15.80;99.90
8402;DHT22;4238;48.404;9.498;2022-10-16T08:48:18;15.80;99.90
8402;DHT22;4238;48.404;9.498;2022-10-16T08:50:50;15.80;99.90
8402;DHT22;4238;48.404;9.498;2022-10-16T08:53:22;15.80;99.90
8402;DHT22;4238;48.404;9.498;2022-10-16T08:55:51;15.80;99.90
8402;DHT22;4238;48.404;9.498;2022-10-16T08:58:19;15.80;96.90
8402;DHT22;4238;48.404;9.498;2022-10-16T09:00:49;15.80;97.60
8402;DHT22;4238;48.404;9.498;2022-10-16T09:03:30;15.90;99.20
8402;DHT22;4238;48.404;9.498;2022-10-16T09:06:18;15.90;99.20
8402;DHT22;4238;48.404;9.498;2022-10-16T09:09:00;16.00;98.20
8402;DHT22;4238;48.404;9.498;2022-10-16T09:11:39;16.00;94.70
8402;DHT22;4238;48.404;9.498;2022-10-16T09:14:22;16.10;92.90
8402;DHT22;4238;48.404;9.498;2022-10-16T09:16:54;16.20;93.70
8402;DHT22;4238;48.404;9.498;2022-10-16T09:19:29;16.30;96.20
8402;DHT22;4238;48.404;9.498;2022-10-16T09:21:59;16.40;94.70
8402;DHT22;4238;48.404;9.498;2022-10-16T09:24:30;16.50;98.50
8402;DHT22;4238;48.404;9.498;2022-10-16T09:26:57;16.70;95.60
8402;DHT22;4238;48.404;9.498;2022-10-16T09:29:23;17.00;93.70
8402;DHT22;4238;48.404;9.498;2022-10-16T09:31:51;17.20;74.80
8402;DHT22;4238;48.404;9.498;2022-10-16T09:34:24;17.30;54.60
8402;DHT22;4238;48.404;9.498;2022-10-16T09:36:53;17.30;51.90
8402;DHT22;4238;48.404;9.498;2022-10-16T09:39:20;17.40;41.00
8402;DHT22;4238;48.404;9.498;2022-10-16T09:41:47;17.40;50.00
8402;DHT22;4238;48.404;9.498;2022-10-16T09:44:21;17.40;41.30
8402;DHT22;4238;48.404;9.498;2022-10-16T09:47:01;17.80;67.00
8402;DHT22;4238;48.404;9.498;2022-10-16T09:49:29;18.10;90.30
8402;DHT22;4238;48.404;9.498;2022-10-16T09:52:04;18.20;53.50
8402;DHT22;4238;48.404;9.498;2022-10-16T09:54:31;18.60;61.20
8402;DHT22;4238;48.404;9.498;2022-10-16T09:57:04;19.40;37.10
8402;DHT22;4238;48.404;9.498;2022-10-16T09:59:31;19.60;10.60
8402;DHT22;4238;48.404;9.498;2022-10-16T10:02:02;19.80;29.00
8402;DHT22;4238;48.404;9.498;2022-10-16T10:04:40;20.10;26.00
8402;DHT22;4238;48.404;9.498;2022-10-16T10:07:18;20.70;1.00
8402;DHT22;4238;48.404;9.498;2022-10-16T10:09:46;20.80;1.00
8402;DHT22;4238;48.404;9.498;2022-10-16T10:12:21;21.20;1.00
8402;DHT22;4238;48.404;9.498;2022-10-16T10:14:50;21.50;1.00
8402;DHT22;4238;48.404;9.498;2022-10-16T10:17:19;21.50;1.00
8402;DHT22;4238;48.404;9.498;2022-10-16T10:19:50;21.30;1.00
8402;DHT22;4238;48.404;9.498;2022-10-16T10:22:23;21.00;1.00
8402;DHT22;4238;48.404;9.498;2022-10-16T10:25:12;21.20;1.00
8402;DHT22;4238;48.404;9.498;2022-10-16T10:30:38;22.10;1.00
8402;DHT22;4238;48.404;9.498;2022-10-16T10:33:20;22.40;99.90
8402;DHT22;4238;48.404;9.498;2022-10-16T10:35:59;22.40;72.10
8402;DHT22;4238;48.404;9.498;2022-10-16T10:38:34;22.30;1.00
8402;DHT22;4238;48.404;9.498;2022-10-16T10:41:21;22.00;99.90
8402;DHT22;4238;48.404;9.498;2022-10-16T10:43:59;21.60;1.00
8402;DHT22;4238;48.404;9.498;2022-10-16T10:46:33;21.50;99.90
8402;DHT22;4238;48.404;9.498;2022-10-16T10:49:15;21.10;1.00
8402;DHT22;4238;48.404;9.498;2022-10-16T10:51:51;21.00;1.00
8402;DHT22;4238;48.404;9.498;2022-10-16T10:54:26;20.90;1.00
8402;DHT22;4238;48.404;9.498;2022-10-16T10:56:58;20.70;1.00
8402;DHT22;4238;48.404;9.498;2022-10-16T10:59:45;20.30;1.00
8402;DHT22;4238;48.404;9.498;2022-10-16T11:02:23;19.80;1.00
8402;DHT22;4238;48.404;9.498;2022-10-16T11:05:04;19.50;1.00
8402;DHT22;4238;48.404;9.498;2022-10-16T11:07:39;19.50;1.00
8402;DHT22;4238;48.404;9.498;2022-10-16T11:10:14;20.10;1.00
8402;DHT22;4238;48.404;9.498;2022-10-16T11:12:44;20.50;1.00
8402;DHT22;4238;48.404;9.498;2022-10-16T11:15:14;21.20;1.00
8402;DHT22;4238;48.404;9.498;2022-10-16T11:17:45;21.60;99.90
8402;DHT22;4238;48.404;9.498;2022-10-16T11:20:16;21.70;99.90
8402;DHT22;4238;48.404;9.498;2022-10-16T11:22:48;22.20;28.20
8402;DHT22;4238;48.404;9.498;2022-10-16T11:25:20;22.50;99.90
8402;DHT22;4238;48.404;9.498;2022-10-16T11:27:52;22.00;1.00
8402;DHT22;4238;48.404;9.498;2022-10-16T11:30:23;21.80;1.00
8402;DHT22;4238;48.404;9.498;2022-10-16T11:33:20;21.50;1.00
8402;DHT22;4238;48.404;9.498;2022-10-16T11:35:53;21.20;1.00
8402;DHT22;4238;48.404;9.498;2022-10-16T11:38:27;21.40;76.70
8402;DHT22;4238;48.404;9.498;2022-10-16T11:41:00;21.70;1.00
8402;DHT22;4238;48.404;9.498;2022-10-16T11:43:34;22.10;99.90
8402;DHT22;4238;48.404;9.498;2022-10-16T11:46:07;22.10;1.00
8402;DHT22;4238;48.404;9.498;2022-10-16T11:48:39;22.50;99.90
8402;DHT22;4238;48.404;9.498;2022-10-16T11:51:16;22.80;1.00
8402;DHT22;4238;48.404;9.498;2022-10-16T11:53:53;22.90;1.00
8402;DHT22;4238;48.404;9.498;2022-10-16T11:56:22;22.70;1.00
8402;DHT22;4238;48.404;9.498;2022-10-16T11:58:54;22.80;99.90
8402;DHT22;4238;48.404;9.498;2022-10-16T12:01:28;23.20;99.90
8402;DHT22;4238;48.404;9.498;2022-10-16T12:04:06;22.80;75.70
8402;DHT22;4238;48.404;9.498;2022-10-16T12:06:42;22.70;99.90
8402;DHT22;4238;48.404;9.498;2022-10-16T12:09:19;21.60;1.00
8402;DHT22;4238;48.404;9.498;2022-10-16T12:11:47;21.50;1.00
8402;DHT22;4238;48.404;9.498;2022-10-16T12:14:35;21.60;99.90
8402;DHT22;4238;48.404;9.498;2022-10-16T12:17:22;21.60;99.90
8402;DHT22;4238;48.404;9.498;2022-10-16T12:19:58;22.00;23.80
8402;DHT22;4238;48.404;9.498;2022-10-16T12:22:28;22.30;99.90
8402;DHT22;4238;48.404;9.498;2022-10-16T12:24:57;22.50;1.00
8402;DHT22;4238;48.404;9.498;2022-10-16T12:27:28;22.50;99.90
8402;DHT22;4238;48.404;9.498;2022-10-16T12:29:57;22.60;99.90
8402;DHT22;4238;48.404;9.498;2022-10-16T12:32:31;22.90;99.90
8402;DHT22;4238;48.404;9.498;2022-10-16T12:34:59;22.80;99.90
8402;DHT22;4238;48.404;9.498;2022-10-16T12:37:31;22.40;99.90
8402;DHT22;4238;48.404;9.498;2022-10-16T12:40:11;22.50;99.90
8402;DHT22;4238;48.404;9.498;2022-10-16T12:42:39;22.40;1.00
8402;DHT22;4238;48.404;9.498;2022-10-16T12:45:24;22.10;99.90
8402;DHT22;4238;48.404;9.498;2022-10-16T12:47:53;22.20;99.90
8402;DHT22;4238;48.404;9.498;2022-10-16T12:50:30;22.20;99.90
8402;DHT22;4238;48.404;9.498;2022-10-16T12:52:58;21.80;1.00
8402;DHT22;4238;48.404;9.498;2022-10-16T12:55:26;21.50;99.90
8402;DHT22;4238;48.404;9.498;2022-10-16T12:58:04;21.90;99.90
8402;DHT22;4238;48.404;9.498;2022-10-16T13:00:39;22.20;1.00
8402;DHT22;4238;48.404;9.498;2022-10-16T13:03:40;22.50;1.00
8402;DHT22;4238;48.404;9.498;2022-10-16T13:06:19;22.70;99.90
8402;DHT22;4238;48.404;9.498;2022-10-16T13:09:05;22.70;1.00
8402;DHT22;4238;48.404;9.498;2022-10-16T13:11:48;22.80;99.90
8402;DHT22;4238;48.404;9.498;2022-10-16T13:14:31;22.70;99.90
8402;DHT22;4238;48.404;9.498;2022-10-16T13:17:06;22.70;99.90
8402;DHT22;4238;48.404;9.498;2022-10-16T13:19:41;22.60;1.00
8402;DHT22;4238;48.404;9.498;2022-10-16T13:22:18;22.60;99.90
8402;DHT22;4238;48.404;9.498;2022-10-16T13:25:02;22.80;1.00
8402;DHT22;4238;48.404;9.498;2022-10-16T13:27:40;23.10;1.00
8402;DHT22;4238;48.404;9.498;2022-10-16T13:30:13;22.70;1.00
8402;DHT22;4238;48.404;9.498;2022-10-16T13:32:45;22.60;1.00
8402;DHT22;4238;48.404;9.498;2022-10-16T13:35:22;22.70;1.00
8402;DHT22;4238;48.404;9.498;2022-10-16T13:37:49;22.80;1.00
8402;DHT22;4238;48.404;9.498;2022-10-16T13:40:21;22.70;1.00
8402;DHT22;4238;48.404;9.498;2022-10-16T13:42:50;22.00;99.90
8402;DHT22;4238;48.404;9.498;2022-10-16T13:45:20;21.70;1.00
8402;DHT22;4238;48.404;9.498;2022-10-16T13:47:47;21.30;99.90
8402;DHT22;4238;48.404;9.498;2022-10-16T13:50:15;20.90;99.90
8402;DHT22;4238;48.404;9.498;2022-10-16T13:52:43;20.60;1.00
8402;DHT22;4238;48.404;9.498;2022-10-16T13:55:11;20.50;1.00
8402;DHT22;4238;48.404;9.498;2022-10-16T13:57:38;20.60;1.00
8402;DHT22;4238;48.404;9.498;2022-10-16T14:00:20;20.40;1.00
8402;DHT22;4238;48.404;9.498;2022-10-16T14:02:53;20.10;1.00
8402;DHT22;4238;48.404;9.498;2022-10-16T14:05:22;20.10;1.00
8402;DHT22;4238;48.404;9.498;2022-10-16T14:07:50;20.10;1.00
8402;DHT22;4238;48.404;9.498;2022-10-16T14:10:23;20.10;1.00
8402;DHT22;4238;48.404;9.498;2022-10-16T14:12:55;20.30;1.00
8402;DHT22;4238;48.404;9.498;2022-10-16T14:15:24;20.40;1.00
8402;DHT22;4238;48.404;9.498;2022-10-16T14:17:52;20.50;1.00
8402;DHT22;4238;48.404;9.498;2022-10-16T14:20:21;20.50;1.00
8402;DHT22;4238;48.404;9.498;2022-10-16T14:22:59;20.40;1.00
8402;DHT22;4238;48.404;9.498;2022-10-16T14:25:27;20.20;1.00
8402;DHT22;4238;48.404;9.498;2022-10-16T14:28:00;20.10;1.00
8402;DHT22;4238;48.404;9.498;2022-10-16T14:30:31;20.00;1.00
8402;DHT22;4238;48.404;9.498;2022-10-16T14:33:00;19.90;1.00
8402;DHT22;4238;48.404;9.498;2022-10-16T14:35:29;19.90;1.00
8402;DHT22;4238;48.404;9.498;2022-10-16T14:37:58;19.80;1.00
8402;DHT22;4238;48.404;9.498;2022-10-16T14:40:27;19.80;1.00
8402;DHT22;4238;48.404;9.498;2022-10-16T14:42:55;19.70;1.00
8402;DHT22;4238;48.404;9.498;2022-10-16T14:45:24;19.60;1.00
8402;DHT22;4238;48.404;9.498;2022-10-16T14:47:55;19.50;1.00
8402;DHT22;4238;48.404;9.498;2022-10-16T14:50:23;19.50;1.00
8402;DHT22;4238;48.404;9.498;2022-10-16T14:52:50;19.40;1.00
8402;DHT22;4238;48.404;9.498;2022-10-16T14:55:17;19.40;1.00
8402;DHT22;4238;48.404;9.498;2022-10-16T14:57:45;19.50;1.00
8402;DHT22;4238;48.404;9.498;2022-10-16T15:00:18;19.50;1.00
8402;DHT22;4238;48.404;9.498;2022-10-16T15:02:47;19.50;1.00
8402;DHT22;4238;48.404;9.498;2022-10-16T15:05:19;19.50;1.00
8402;DHT22;4238;48.404;9.498;2022-10-16T15:07:46;19.50;1.00
8402;DHT22;4238;48.404;9.498;2022-10-16T15:10:14;19.50;1.00
8402;DHT22;4238;48.404;9.498;2022-10-16T15:12:41;19.40;1.00
8402;DHT22;4238;48.404;9.498;2022-10-16T15:15:24;19.40;1.00
8402;DHT22;4238;48.404;9.498;2022-10-16T15:17:52;19.20;1.00
8402;DHT22;4238;48.404;9.498;2022-10-16T15:20:23;19.10;1.00
8402;DHT22;4238;48.404;9.498;2022-10-16T15:22:51;18.90;1.00
8402;DHT22;4238;48.404;9.498;2022-10-16T15:25:30;18.80;1.00
8402;DHT22;4238;48.404;9.498;2022-10-16T15:27:58;18.90;1.00
8402;DHT22;4238;48.404;9.498;2022-10-16T15:30:25;18.70;1.00
8402;DHT22;4238;48.404;9.498;2022-10-16T15:32:52;18.60;1.00
8402;DHT22;4238;48.404;9.498;2022-10-16T15:35:19;18.60;1.00
8402;DHT22;4238;48.404;9.498;2022-10-16T15:37:48;18.70;1.00
8402;DHT22;4238;48.404;9.498;2022-10-16T15:40:15;18.40;1.00
8402;DHT22;4238;48.404;9.498;2022-10-16T15:42:42;18.40;1.00
8402;DHT22;4238;48.404;9.498;2022-10-16T15:45:10;18.40;1.00
8402;DHT22;4238;48.404;9.498;2022-10-16T15:47:37;18.30;1.00
8402;DHT22;4238;48.404;9.498;2022-10-16T15:50:05;18.40;1.00
8402;DHT22;4238;48.404;9.498;2022-10-16T15:52:32;18.30;1.00
8402;DHT22;4238;48.404;9.498;2022-10-16T15:55:00;18.20;1.00
8402;DHT22;4238;48.404;9.498;2022-10-16T15:57:28;18.00;1.00
8402;DHT22;4238;48.404;9.498;2022-10-16T15:59:55;18.00;3.20
8402;DHT22;4238;48.404;9.498;2022-10-16T16:02:22;18.00;9.10
8402;DHT22;4238;48.404;9.498;2022-10-16T16:04:49;17.80;16.20
8402;DHT22;4238;48.404;9.498;2022-10-16T16:07:16;17.90;18.20
8402;DHT22;4238;48.404;9.498;2022-10-16T16:09:43;17.90;15.60
8402;DHT22;4238;48.404;9.498;2022-10-16T16:12:11;17.70;38.80
8402;DHT22;4238;48.404;9.498;2022-10-16T16:14:39;17.70;20.80
8402;DHT22;4238;48.404;9.498;2022-10-16T16:17:05;17.60;27.90
8402;DHT22;4238;48.404;9.498;2022-10-16T16:19:32;17.40;35.60
8402;DHT22;4238;48.404;9.498;2022-10-16T16:22:00;17.20;45.50
8402;DHT22;4238;48.404;9.498;2022-10-16T16:24:27;17.00;62.10
8402;DHT22;4238;48.404;9.498;2022-10-16T16:26:54;16.90;71.10
8402;DHT22;4238;48.404;9.498;2022-10-16T16:29:22;16.70;67.60